sensor_id;sensor_type;location;lat;lon;timestamp;pressure;altitude;pressure_sealevel;temperature;humidity
61742;BME280;47650;49.848;9.620;2023-09-19T00:01:46;99014.41;;;18.09;86.70
61742;BME280;47650;49.848;9.620;2023-09-19T00:04:12;99024.72;;;18.19;86.14
61742;BME280;47650;49.848;9.620;2023-09-19T00:06:38;99031.72;;;18.33;85.35
61742;BME280;47650;49.848;9.620;2023-09-19T00:09:04;99032.97;;;18.31;85.23
61742;BME280;47650;49.848;9.620;2023-09-19T00:11:31;99028.44;;;18.25;85.44
61742;BME280;47650;49.848;9.620;2023-09-19T00:14:00;99044.13;;;18.01;87.38
61742;BME280;47650;49.848;9.620;2023-09-19T00:16:27;99053.63;;;18.10;86.51
61742;BME280;47650;49.848;9.620;2023-09-19T00:18:55;99033.44;;;17.88;86.92
61742;BME280;47650;49.848;9.620;2023-09-19T00:21:22;99004.94;;;18.00;85.29
61742;BME280;47650;49.848;9.620;2023-09-19T00:23:48;99037.94;;;18.00;86.65
61742;BME280;47650;49.848;9.620;2023-09-19T00:26:20;99030.72;;;18.01;85.70
61742;BME280;47650;49.848;9.620;2023-09-19T00:28:46;99049.88;;;18.31;85.77
61742;BME280;47650;49.848;9.620;2023-09-19T00:31:14;99033.59;;;18.19;85.74
61742;BME280;47650;49.848;9.620;2023-09-19T00:33:42;99027.22;;;18.20;85.18
61742;BME280;47650;49.848;9.620;2023-09-19T00:36:09;99054.41;;;18.37;84.80
61742;BME280;47650;49.848;9.620;2023-09-19T00:38:35;99050.50;;;18.20;85.28
61742;BME280;47650;49.848;9.620;2023-09-19T00:41:02;99054.03;;;17.94;87.53
61742;BME280;47650;49.848;9.620;2023-09-19T00:43:29;99057.13;;;17.91;88.63
61742;BME280;47650;49.848;9.620;2023-09-19T00:45:55;99060.81;;;17.76;88.50
61742;BME280;47650;49.848;9.620;2023-09-19T00:48:21;99058.56;;;17.60;90.38
61742;BME280;47650;49.848;9.620;2023-09-19T00:50:49;99062.28;;;17.92;88.21
61742;BME280;47650;49.848;9.620;2023-09-19T00:53:21;99064.31;;;17.83;88.93
61742;BME280;47650;49.848;9.620;2023-09-19T00:55:51;99070.09;;;17.80;88.48
61742;BME280;47650;49.848;9.620;2023-09-19T00:58:18;99067.25;;;18.09;86.71
61742;BME280;47650;49.848;9.620;2023-09-19T01:00:49;99046.81;;;18.01;86.47
61742;BME280;47650;49.848;9.620;2023-09-19T01:03:17;99070.53;;;17.97;87.99
61742;BME280;47650;49.848;9.620;2023-09-19T01:05:47;99075.50;;;18.07;87.59
61742;BME280;47650;49.848;9.620;2023-09-19T01:08:12;99073.44;;;17.96;88.07
61742;BME280;47650;49.848;9.620;2023-09-19T01:10:44;99072.59;;;17.69;90.50
61742;BME280;47650;49.848;9.620;2023-09-19T01:21:58;99088.72;;;18.02;89.54
61742;BME280;47650;49.848;9.620;2023-09-19T01:25:05;99073.19;;;17.71;91.63
61742;BME280;47650;49.848;9.620;2023-09-19T01:30:39;99069.31;;;18.07;88.88
61742;BME280;47650;49.848;9.620;2023-09-19T01:33:06;99083.34;;;18.15;88.91
61742;BME280;47650;49.848;9.620;2023-09-19T01:35:39;99088.06;;;18.20;88.97
61742;BME280;47650;49.848;9.620;2023-09-19T01:38:08;99082.53;;;18.08;89.33
61742;BME280;47650;49.848;9.620;2023-09-19T01:40:42;99081.69;;;17.94;89.41
61742;BME280;47650;49.848;9.620;2023-09-19T01:43:20;99092.00;;;17.91;90.83
61742;BME280;47650;49.848;9.620;2023-09-19T01:46:09;99099.03;;;18.12;89.59
61742;BME280;47650;49.848;9.620;2023-09-19T01:54:30;99102.09;;;18.29;88.59
61742;BME280;47650;49.848;9.620;2023-09-19T01:57:17;99095.72;;;18.16;89.12
61742;BME280;47650;49.848;9.620;2023-09-19T01:59:54;99106.66;;;18.21;89.73
61742;BME280;47650;49.848;9.620;2023-09-19T02:02:22;99111.81;;;18.23;90.02
61742;BME280;47650;49.848;9.620;2023-09-19T02:04:50;99109.53;;;18.40;88.66
61742;BME280;47650;49.848;9.620;2023-09-19T02:07:17;99107.47;;;18.29;88.79
61742;BME280;47650;49.848;9.620;2023-09-19T02:09:45;99112.16;;;18.60;87.68
61742;BME280;47650;49.848;9.620;2023-09-19T02:12:15;99110.59;;;18.26;89.32
61742;BME280;47650;49.848;9.620;2023-09-19T02:14:41;99097.38;;;18.17;88.96
61742;BME280;47650;49.848;9.620;2023-09-19T02:17:06;99102.69;;;18.57;88.37
61742;BME280;47650;49.848;9.620;2023-09-19T02:19:33;99105.56;;;18.63;86.90
61742;BME280;47650;49.848;9.620;2023-09-19T02:22:05;99105.97;;;18.59;87.02
61742;BME280;47650;49.848;9.620;2023-09-19T02:24:33;99120.00;;;18.68;86.41
61742;BME280;47650;49.848;9.620;2023-09-19T02:27:00;99120.22;;;18.87;86.52
61742;BME280;47650;49.848;9.620;2023-09-19T02:29:31;99121.28;;;18.52;87.67
61742;BME280;47650;49.848;9.620;2023-09-19T02:32:00;99068.25;;;18.34;87.10
61742;BME280;47650;49.848;9.620;2023-09-19T02:34:28;99112.63;;;18.23;92.04
61742;BME280;47650;49.848;9.620;2023-09-19T02:36:54;99137.81;;;18.22;93.05
61742;BME280;47650;49.848;9.620;2023-09-19T02:39:21;99125.84;;;18.05;95.25
61742;BME280;47650;49.848;9.620;2023-09-19T02:41:46;99132.44;;;18.09;95.99
61742;BME280;47650;49.848;9.620;2023-09-19T02:44:12;99094.78;;;17.49;99.21
61742;BME280;47650;49.848;9.620;2023-09-19T02:46:39;99127.38;;;17.53;100.00
61742;BME280;47650;49.848;9.620;2023-09-19T02:49:06;99127.44;;;17.79;100.00
61742;BME280;47650;49.848;9.620;2023-09-19T02:51:42;99141.72;;;17.87;100.00
61742;BME280;47650;49.848;9.620;2023-09-19T02:54:10;99143.16;;;17.96;100.00
61742;BME280;47650;49.848;9.620;2023-09-19T02:56:36;99140.91;;;17.86;100.00
61742;BME280;47650;49.848;9.620;2023-09-19T02:59:02;99143.34;;;17.81;100.00
61742;BME280;47650;49.848;9.620;2023-09-19T03:01:29;99153.91;;;18.09;100.00
61742;BME280;47650;49.848;9.620;2023-09-19T03:03:56;99149.91;;;17.78;100.00
61742;BME280;47650;49.848;9.620;2023-09-19T03:06:22;99124.69;;;17.53;100.00
61742;BME280;47650;49.848;9.620;2023-09-19T03:08:49;99153.84;;;17.76;100.00
61742;BME280;47650;49.848;9.620;2023-09-19T03:11:17;99160.31;;;18.21;100.00
61742;BME280;47650;49.848;9.620;2023-09-19T03:13:52;99161.72;;;17.91;100.00
61742;BME280;47650;49.848;9.620;2023-09-19T03:16:17;99163.38;;;17.92;100.00
61742;BME280;47650;49.848;9.620;2023-09-19T03:18:45;99151.22;;;17.96;100.00
61742;BME280;47650;49.848;9.620;2023-09-19T03:21:10;99168.47;;;17.80;100.00
61742;BME280;47650;49.848;9.620;2023-09-19T03:23:37;99176.72;;;17.78;100.00
61742;BME280;47650;49.848;9.620;2023-09-19T03:26:04;99147.59;;;17.48;100.00
61742;BME280;47650;49.848;9.620;2023-09-19T03:28:33;99182.78;;;17.32;100.00
61742;BME280;47650;49.848;9.620;2023-09-19T03:31:05;99177.16;;;17.75;100.00
61742;BME280;47650;49.848;9.620;2023-09-19T03:33:31;99174.47;;;17.82;100.00
61742;BME280;47650;49.848;9.620;2023-09-19T03:36:04;99177.22;;;18.02;100.00
61742;BME280;47650;49.848;9.620;2023-09-19T03:38:30;99180.50;;;17.91;100.00
61742;BME280;47650;49.848;9.620;2023-09-19T03:40:57;99170.25;;;17.53;100.00
61742;BME280;47650;49.848;9.620;2023-09-19T03:43:25;99175.16;;;17.36;100.00
61742;BME280;47650;49.848;9.620;2023-09-19T03:45:53;99154.19;;;17.53;100.00
61742;BME280;47650;49.848;9.620;2023-09-19T03:48:19;99183.28;;;17.62;100.00
61742;BME280;47650;49.848;9.620;2023-09-19T03:50:47;99179.19;;;17.73;100.00
61742;BME280;47650;49.848;9.620;2023-09-19T03:53:12;99152.50;;;17.38;100.00
61742;BME280;47650;49.848;9.620;2023-09-19T03:55:38;99185.50;;;17.45;100.00
61742;BME280;47650;49.848;9.620;2023-09-19T03:58:04;99189.28;;;17.64;100.00
61742;BME280;47650;49.848;9.620;2023-09-19T04:00:31;99195.63;;;17.50;100.00
61742;BME280;47650;49.848;9.620;2023-09-19T04:02:57;99187.91;;;17.27;100.00
61742;BME280;47650;49.848;9.620;2023-09-19T04:05:23;99202.56;;;17.31;100.00
61742;BME280;47650;49.848;9.620;2023-09-19T04:07:49;99174.44;;;17.14;100.00
61742;BME280;47650;49.848;9.620;2023-09-19T04:10:19;99181.66;;;17.20;100.00
61742;BME280;47650;49.848;9.620;2023-09-19T04:12:55;99180.81;;;17.13;100.00
61742;BME280;47650;49.848;9.620;2023-09-19T04:15:21;99184.94;;;17.08;100.00
61742;BME280;47650;49.848;9.620;2023-09-19T04:17:49;99204.38;;;17.24;100.00
61742;BME280;47650;49.848;9.620;2023-09-19T04:20:14;99175.81;;;16.96;100.00
61742;BME280;47650;49.848;9.620;2023-09-19T04:22:42;99211.78;;;16.87;100.00
61742;BME280;47650;49.848;9.620;2023-09-19T04:25:07;99191.69;;;16.76;100.00
61742;BME280;47650;49.848;9.620;2023-09-19T04:27:33;99210.28;;;17.13;100.00
61742;BME280;47650;49.848;9.620;2023-09-19T04:29:58;99210.91;;;17.15;100.00
61742;BME280;47650;49.848;9.620;2023-09-19T04:32:28;99211.19;;;16.91;100.00
61742;BME280;47650;49.848;9.620;2023-09-19T04:34:55;99162.75;;;16.86;100.00
61742;BME280;47650;49.848;9.620;2023-09-19T04:37:25;99227.53;;;17.03;100.00
61742;BME280;47650;49.848;9.620;2023-09-19T04:39:51;99200.47;;;16.91;100.00
61742;BME280;47650;49.848;9.620;2023-09-19T04:42:16;99220.53;;;17.02;100.00
61742;BME280;47650;49.848;9.620;2023-09-19T04:44:42;99206.81;;;16.84;100.00
61742;BME280;47650;49.848;9.620;2023-09-19T04:47:09;99186.75;;;17.01;100.00
61742;BME280;47650;49.848;9.620;2023-09-19T04:49:37;99223.47;;;17.14;100.00
61742;BME280;47650;49.848;9.620;2023-09-19T04:52:02;99230.69;;;17.14;100.00
61742;BME280;47650;49.848;9.620;2023-09-19T04:54:28;99194.75;;;16.95;100.00
61742;BME280;47650;49.848;9.620;2023-09-19T04:56:53;99203.47;;;16.53;100.00
61742;BME280;47650;49.848;9.620;2023-09-19T04:59:18;99231.38;;;16.87;100.00
61742;BME280;47650;49.848;9.620;2023-09-19T05:01:44;99241.50;;;16.70;100.00
61742;BME280;47650;49.848;9.620;2023-09-19T05:04:23;99227.63;;;16.88;100.00
61742;BME280;47650;49.848;9.620;2023-09-19T05:06:48;99216.03;;;16.53;100.00
61742;BME280;47650;49.848;9.620;2023-09-19T05:09:18;99231.56;;;16.64;100.00
61742;BME280;47650;49.848;9.620;2023-09-19T05:11:45;99247.00;;;16.84;100.00
61742;BME280;47650;49.848;9.620;2023-09-19T05:14:13;99262.78;;;16.79;100.00
61742;BME280;47650;49.848;9.620;2023-09-19T05:16:41;99234.91;;;16.45;100.00
61742;BME280;47650;49.848;9.620;2023-09-19T05:19:06;99264.78;;;16.98;100.00
61742;BME280;47650;49.848;9.620;2023-09-19T05:21:33;99268.91;;;16.72;100.00
61742;BME280;47650;49.848;9.620;2023-09-19T05:23:58;99261.34;;;16.54;100.00
61742;BME280;47650;49.848;9.620;2023-09-19T05:26:25;99263.53;;;16.94;100.00
61742;BME280;47650;49.848;9.620;2023-09-19T05:28:51;99281.59;;;16.85;100.00
61742;BME280;47650;49.848;9.620;2023-09-19T05:31:19;99281.25;;;16.95;100.00
61742;BME280;47650;49.848;9.620;2023-09-19T05:33:45;99268.25;;;16.70;100.00
61742;BME280;47650;49.848;9.620;2023-09-19T05:36:10;99276.97;;;16.79;100.00
61742;BME280;47650;49.848;9.620;2023-09-19T05:38:38;99268.00;;;16.87;100.00
61742;BME280;47650;49.848;9.620;2023-09-19T05:41:08;99271.81;;;16.99;100.00
61742;BME280;47650;49.848;9.620;2023-09-19T05:43:40;99281.72;;;17.05;100.00
61742;BME280;47650;49.848;9.620;2023-09-19T05:46:06;99234.91;;;16.95;100.00
61742;BME280;47650;49.848;9.620;2023-09-19T05:48:33;99293.41;;;17.26;100.00
61742;BME280;47650;49.848;9.620;2023-09-19T05:50:58;99289.75;;;17.34;100.00
61742;BME280;47650;49.848;9.620;2023-09-19T05:53:24;99274.78;;;17.53;100.00
61742;BME280;47650;49.848;9.620;2023-09-19T05:56:00;99290.72;;;17.61;100.00
61742;BME280;47650;49.848;9.620;2023-09-19T05:58:26;99267.19;;;17.98;100.00
61742;BME280;47650;49.848;9.620;2023-09-19T06:00:56;99281.84;;;18.02;99.15
61742;BME280;47650;49.848;9.620;2023-09-19T06:03:22;99285.84;;;17.78;99.41
61742;BME280;47650;49.848;9.620;2023-09-19T06:05:50;99282.88;;;17.59;100.00
61742;BME280;47650;49.848;9.620;2023-09-19T06:08:17;99291.38;;;17.70;99.52
61742;BME280;47650;49.848;9.620;2023-09-19T06:10:43;99279.00;;;18.17;97.83
61742;BME280;47650;49.848;9.620;2023-09-19T06:13:08;99295.28;;;17.67;99.06
61742;BME280;47650;49.848;9.620;2023-09-19T06:15:35;99285.81;;;18.19;95.41
61742;BME280;47650;49.848;9.620;2023-09-19T06:18:02;99294.66;;;18.13;95.66
61742;BME280;47650;49.848;9.620;2023-09-19T06:20:30;99292.00;;;18.27;96.13
61742;BME280;47650;49.848;9.620;2023-09-19T06:22:57;99294.97;;;18.52;93.10
61742;BME280;47650;49.848;9.620;2023-09-19T06:25:24;99298.66;;;18.31;93.91
61742;BME280;47650;49.848;9.620;2023-09-19T06:27:52;99306.06;;;17.80;95.46
61742;BME280;47650;49.848;9.620;2023-09-19T06:30:19;99304.00;;;17.76;95.38
61742;BME280;47650;49.848;9.620;2023-09-19T06:32:45;99309.38;;;17.82;95.20
61742;BME280;47650;49.848;9.620;2023-09-19T06:35:15;99310.19;;;17.76;93.68
61742;BME280;47650;49.848;9.620;2023-09-19T06:37:42;99308.31;;;17.77;92.61
61742;BME280;47650;49.848;9.620;2023-09-19T06:40:12;99316.47;;;17.97;91.18
61742;BME280;47650;49.848;9.620;2023-09-19T06:42:47;99322.34;;;18.20;90.22
61742;BME280;47650;49.848;9.620;2023-09-19T06:45:17;99318.78;;;18.13;88.99
61742;BME280;47650;49.848;9.620;2023-09-19T06:47:47;99320.06;;;18.17;87.78
61742;BME280;47650;49.848;9.620;2023-09-19T06:50:20;99330.00;;;18.30;86.17
61742;BME280;47650;49.848;9.620;2023-09-19T06:52:48;99331.31;;;17.86;87.07
61742;BME280;47650;49.848;9.620;2023-09-19T06:55:15;99335.03;;;18.67;84.76
61742;BME280;47650;49.848;9.620;2023-09-19T06:57:42;99341.63;;;18.57;84.38
61742;BME280;47650;49.848;9.620;2023-09-19T07:00:08;99338.13;;;18.64;84.93
61742;BME280;47650;49.848;9.620;2023-09-19T07:02:40;99329.78;;;18.25;82.48
61742;BME280;47650;49.848;9.620;2023-09-19T07:05:07;99344.75;;;18.81;81.89
61742;BME280;47650;49.848;9.620;2023-09-19T07:07:33;99351.81;;;18.95;80.38
61742;BME280;47650;49.848;9.620;2023-09-19T07:10:03;99346.38;;;18.55;79.75
61742;BME280;47650;49.848;9.620;2023-09-19T07:12:37;99350.25;;;18.33;81.08
61742;BME280;47650;49.848;9.620;2023-09-19T07:15:03;99348.00;;;18.56;80.77
61742;BME280;47650;49.848;9.620;2023-09-19T07:17:31;99358.84;;;19.16;77.59
61742;BME280;47650;49.848;9.620;2023-09-19T07:19:58;99348.41;;;18.40;79.52
61742;BME280;47650;49.848;9.620;2023-09-19T07:22:24;99365.38;;;18.54;79.24
61742;BME280;47650;49.848;9.620;2023-09-19T07:24:51;99365.44;;;18.87;77.18
61742;BME280;47650;49.848;9.620;2023-09-19T07:27:16;99373.53;;;19.07;77.32
61742;BME280;47650;49.848;9.620;2023-09-19T07:29:41;99359.47;;;18.85;77.14
61742;BME280;47650;49.848;9.620;2023-09-19T07:32:11;99391.84;;;18.64;76.44
61742;BME280;47650;49.848;9.620;2023-09-19T07:34:37;99387.56;;;19.03;76.34
61742;BME280;47650;49.848;9.620;2023-09-19T07:37:05;99394.81;;;19.22;74.41
61742;BME280;47650;49.848;9.620;2023-09-19T07:39:31;99386.88;;;19.87;71.22
61742;BME280;47650;49.848;9.620;2023-09-19T07:41:56;99365.84;;;18.91;74.27
61742;BME280;47650;49.848;9.620;2023-09-19T07:44:23;99408.47;;;19.14;70.80
61742;BME280;47650;49.848;9.620;2023-09-19T07:46:50;99389.03;;;18.98;69.92
61742;BME280;47650;49.848;9.620;2023-09-19T07:49:18;99368.72;;;19.76;68.32
61742;BME280;47650;49.848;9.620;2023-09-19T07:51:44;99415.28;;;19.23;71.22
61742;BME280;47650;49.848;9.620;2023-09-19T07:54:12;99356.75;;;19.32;68.65
61742;BME280;47650;49.848;9.620;2023-09-19T07:56:39;99416.94;;;19.11;70.84
61742;BME280;47650;49.848;9.620;2023-09-19T07:59:05;99415.06;;;19.11;70.77
61742;BME280;47650;49.848;9.620;2023-09-19T08:01:31;99383.22;;;19.15;68.72
61742;BME280;47650;49.848;9.620;2023-09-19T08:03:59;99431.63;;;19.28;69.39
61742;BME280;47650;49.848;9.620;2023-09-19T08:06:24;99411.25;;;20.13;66.37
61742;BME280;47650;49.848;9.620;2023-09-19T08:08:55;99441.53;;;19.61;65.75
61742;BME280;47650;49.848;9.620;2023-09-19T08:11:21;99374.50;;;19.73;63.46
61742;BME280;47650;49.848;9.620;2023-09-19T08:13:49;99415.88;;;19.12;66.20
61742;BME280;47650;49.848;9.620;2023-09-19T08:16:15;99442.56;;;19.07;67.33
61742;BME280;47650;49.848;9.620;2023-09-19T08:18:48;99440.28;;;19.17;67.75
61742;BME280;47650;49.848;9.620;2023-09-19T08:21:13;99421.88;;;18.26;71.51
61742;BME280;47650;49.848;9.620;2023-09-19T08:23:39;99460.94;;;18.41;71.96
61742;BME280;47650;49.848;9.620;2023-09-19T08:26:06;99459.38;;;18.60;71.29
61742;BME280;47650;49.848;9.620;2023-09-19T08:28:33;99428.78;;;18.13;71.73
61742;BME280;47650;49.848;9.620;2023-09-19T08:31:06;99425.63;;;19.26;68.76
61742;BME280;47650;49.848;9.620;2023-09-19T08:33:35;99442.78;;;19.52;64.93
61742;BME280;47650;49.848;9.620;2023-09-19T08:36:02;99456.41;;;19.64;63.59
61742;BME280;47650;49.848;9.620;2023-09-19T08:38:31;99451.94;;;20.36;62.24
61742;BME280;47650;49.848;9.620;2023-09-19T08:41:04;99452.28;;;19.68;62.17
61742;BME280;47650;49.848;9.620;2023-09-19T08:43:30;99424.38;;;19.49;62.36
61742;BME280;47650;49.848;9.620;2023-09-19T08:48:32;99458.69;;;19.94;61.54
61742;BME280;47650;49.848;9.620;2023-09-19T08:51:08;99458.50;;;19.95;60.27
61742;BME280;47650;49.848;9.620;2023-09-19T08:56:10;99422.63;;;20.66;54.51
61742;BME280;47650;49.848;9.620;2023-09-19T08:58:44;99455.13;;;22.04;51.11
61742;BME280;47650;49.848;9.620;2023-09-19T09:01:11;99463.44;;;21.84;50.91
61742;BME280;47650;49.848;9.620;2023-09-19T09:03:42;99399.59;;;21.02;52.84
61742;BME280;47650;49.848;9.620;2023-09-19T09:06:13;99460.84;;;20.37;53.40
61742;BME280;47650;49.848;9.620;2023-09-19T09:08:43;99470.06;;;19.96;52.72
61742;BME280;47650;49.848;9.620;2023-09-19T09:11:10;99463.44;;;19.98;52.33
61742;BME280;47650;49.848;9.620;2023-09-19T09:13:36;99475.03;;;20.05;52.52
61742;BME280;47650;49.848;9.620;2023-09-19T09:16:04;99464.91;;;19.74;51.19
61742;BME280;47650;49.848;9.620;2023-09-19T09:18:31;99466.75;;;19.73;50.72
61742;BME280;47650;49.848;9.620;2023-09-19T09:20:56;99467.81;;;19.72;50.76
61742;BME280;47650;49.848;9.620;2023-09-19T09:23:23;99475.84;;;20.06;49.62
61742;BME280;47650;49.848;9.620;2023-09-19T09:25:54;99477.44;;;21.17;45.74
61742;BME280;47650;49.848;9.620;2023-09-19T09:28:26;99461.50;;;21.41;45.10
61742;BME280;47650;49.848;9.620;2023-09-19T09:30:53;99472.56;;;22.08;43.52
61742;BME280;47650;49.848;9.620;2023-09-19T09:33:19;99404.63;;;22.60;41.59
61742;BME280;47650;49.848;9.620;2023-09-19T09:35:54;99455.06;;;23.51;40.30
61742;BME280;47650;49.848;9.620;2023-09-19T09:38:25;99462.97;;;21.69;43.08
61742;BME280;47650;49.848;9.620;2023-09-19T09:40:56;99445.75;;;23.23;39.71
61742;BME280;47650;49.848;9.620;2023-09-19T09:43:36;99458.88;;;23.07;39.86
61742;BME280;47650;49.848;9.620;2023-09-19T09:46:06;99449.09;;;24.89;36.83
61742;BME280;47650;49.848;9.620;2023-09-19T09:51:41;99466.84;;;22.72;39.75
61742;BME280;47650;49.848;9.620;2023-09-19T09:54:22;99456.25;;;23.55;39.61
61742;BME280;47650;49.848;9.620;2023-09-19T09:56:58;99454.31;;;22.41;38.09
61742;BME280;47650;49.848;9.620;2023-09-19T09:59:44;99435.41;;;24.67;35.44
61742;BME280;47650;49.848;9.620;2023-09-19T10:02:20;99447.28;;;25.40;33.55
61742;BME280;47650;49.848;9.620;2023-09-19T10:04:51;99445.00;;;26.05;33.09
61742;BME280;47650;49.848;9.620;2023-09-19T10:07:38;99412.75;;;25.52;32.62
61742;BME280;47650;49.848;9.620;2023-09-19T10:10:07;99431.13;;;25.67;32.50
61742;BME280;47650;49.848;9.620;2023-09-19T10:12:45;99434.81;;;24.65;34.00
61742;BME280;47650;49.848;9.620;2023-09-19T10:15:12;99432.06;;;26.12;32.12
61742;BME280;47650;49.848;9.620;2023-09-19T10:17:43;99431.38;;;27.26;30.72
61742;BME280;47650;49.848;9.620;2023-09-19T10:20:15;99452.44;;;24.79;31.58
61742;BME280;47650;49.848;9.620;2023-09-19T10:23:06;99435.50;;;25.34;31.79
61742;BME280;47650;49.848;9.620;2023-09-19T10:25:36;99441.00;;;26.79;29.99
61742;BME280;47650;49.848;9.620;2023-09-19T10:28:02;99435.56;;;25.06;31.92
61742;BME280;47650;49.848;9.620;2023-09-19T10:30:34;99320.22;;;23.95;32.53
61742;BME280;47650;49.848;9.620;2023-09-19T10:33:04;99452.56;;;23.14;34.38
61742;BME280;47650;49.848;9.620;2023-09-19T10:35:32;99437.44;;;24.88;32.89
61742;BME280;47650;49.848;9.620;2023-09-19T10:38:00;99393.06;;;23.37;34.00
61742;BME280;47650;49.848;9.620;2023-09-19T10:40:27;99440.22;;;23.30;34.97
61742;BME280;47650;49.848;9.620;2023-09-19T10:43:04;99443.31;;;23.92;34.31
61742;BME280;47650;49.848;9.620;2023-09-19T10:45:33;99438.44;;;24.70;33.15
61742;BME280;47650;49.848;9.620;2023-09-19T10:48:03;99448.66;;;26.16;31.04
61742;BME280;47650;49.848;9.620;2023-09-19T10:50:46;99448.28;;;25.90;30.69
61742;BME280;47650;49.848;9.620;2023-09-19T10:53:16;99437.19;;;28.20;29.00
61742;BME280;47650;49.848;9.620;2023-09-19T10:55:53;99439.63;;;26.76;29.63
61742;BME280;47650;49.848;9.620;2023-09-19T10:58:26;99428.34;;;30.64;25.40
61742;BME280;47650;49.848;9.620;2023-09-19T11:00:57;99397.06;;;26.92;28.45
61742;BME280;47650;49.848;9.620;2023-09-19T11:03:38;99416.38;;;27.55;28.34
61742;BME280;47650;49.848;9.620;2023-09-19T11:06:16;99434.16;;;26.54;29.87
61742;BME280;47650;49.848;9.620;2023-09-19T11:08:55;99440.66;;;26.48;29.86
61742;BME280;47650;49.848;9.620;2023-09-19T11:11:39;99431.13;;;27.65;29.15
61742;BME280;47650;49.848;9.620;2023-09-19T11:14:28;99435.38;;;27.88;28.23
61742;BME280;47650;49.848;9.620;2023-09-19T11:30:40;99434.72;;;26.78;28.00
61742;BME280;47650;49.848;9.620;2023-09-19T11:33:29;99415.25;;;27.51;27.56
61742;BME280;47650;49.848;9.620;2023-09-19T11:36:16;99423.13;;;27.15;28.41
61742;BME280;47650;49.848;9.620;2023-09-19T11:43:52;99431.59;;;24.80;31.69
61742;BME280;47650;49.848;9.620;2023-09-19T11:46:25;99394.13;;;24.93;31.79
61742;BME280;47650;49.848;9.620;2023-09-19T11:48:51;99434.38;;;25.86;30.04
61742;BME280;47650;49.848;9.620;2023-09-19T11:51:20;99422.97;;;26.51;30.00
61742;BME280;47650;49.848;9.620;2023-09-19T11:53:50;99390.84;;;25.98;30.16
61742;BME280;47650;49.848;9.620;2023-09-19T11:56:23;99424.13;;;26.77;30.36
61742;BME280;47650;49.848;9.620;2023-09-19T11:58:52;99429.06;;;25.07;32.53
61742;BME280;47650;49.848;9.620;2023-09-19T12:01:31;99396.09;;;24.98;32.65
61742;BME280;47650;49.848;9.620;2023-09-19T12:03:58;99426.03;;;24.46;33.43
61742;BME280;47650;49.848;9.620;2023-09-19T12:06:26;99423.88;;;25.22;32.64
61742;BME280;47650;49.848;9.620;2023-09-19T12:08:52;99421.72;;;25.92;31.75
61742;BME280;47650;49.848;9.620;2023-09-19T12:11:21;99409.75;;;26.81;30.56
61742;BME280;47650;49.848;9.620;2023-09-19T12:13:49;99407.81;;;27.09;30.96
61742;BME280;47650;49.848;9.620;2023-09-19T12:16:19;99399.81;;;29.35;27.85
61742;BME280;47650;49.848;9.620;2023-09-19T12:18:49;99383.84;;;31.27;24.97
61742;BME280;47650;49.848;9.620;2023-09-19T12:21:41;99385.44;;;30.05;26.50
61742;BME280;47650;49.848;9.620;2023-09-19T12:24:15;99403.59;;;28.04;28.16
61742;BME280;47650;49.848;9.620;2023-09-19T12:26:44;99388.16;;;28.30;28.43
61742;BME280;47650;49.848;9.620;2023-09-19T12:29:15;99398.63;;;26.12;31.72
61742;BME280;47650;49.848;9.620;2023-09-19T12:31:54;99396.03;;;25.83;31.74
61742;BME280;47650;49.848;9.620;2023-09-19T12:34:27;99380.41;;;27.53;29.50
61742;BME280;47650;49.848;9.620;2023-09-19T12:39:49;99389.63;;;28.74;27.89
61742;BME280;47650;49.848;9.620;2023-09-19T12:42:19;99393.72;;;26.85;30.01
61742;BME280;47650;49.848;9.620;2023-09-19T12:44:49;99397.94;;;25.99;31.93
61742;BME280;47650;49.848;9.620;2023-09-19T12:47:21;99377.38;;;25.47;32.66
61742;BME280;47650;49.848;9.620;2023-09-19T12:50:14;99390.09;;;26.74;30.18
61742;BME280;47650;49.848;9.620;2023-09-19T12:52:47;99381.97;;;26.25;31.27
61742;BME280;47650;49.848;9.620;2023-09-19T12:55:30;99387.41;;;25.86;32.05
61742;BME280;47650;49.848;9.620;2023-09-19T13:03:25;99375.91;;;28.43;27.99
61742;BME280;47650;49.848;9.620;2023-09-19T13:05:53;99375.34;;;27.30;29.55
61742;BME280;47650;49.848;9.620;2023-09-19T13:08:25;99369.25;;;28.03;28.26
61742;BME280;47650;49.848;9.620;2023-09-19T13:11:17;99364.53;;;28.56;27.80
61742;BME280;47650;49.848;9.620;2023-09-19T13:16:31;99323.38;;;27.79;28.16
61742;BME280;47650;49.848;9.620;2023-09-19T13:18:58;99375.13;;;27.04;29.63
61742;BME280;47650;49.848;9.620;2023-09-19T13:21:33;99358.69;;;27.64;28.60
61742;BME280;47650;49.848;9.620;2023-09-19T13:26:44;99339.47;;;29.00;28.18
61742;BME280;47650;49.848;9.620;2023-09-19T13:29:09;99374.38;;;26.05;31.05
61742;BME280;47650;49.848;9.620;2023-09-19T13:31:34;99363.97;;;25.80;31.59
61742;BME280;47650;49.848;9.620;2023-09-19T13:34:01;99321.78;;;26.98;30.67
61742;BME280;47650;49.848;9.620;2023-09-19T13:36:26;99337.44;;;28.29;28.39
61742;BME280;47650;49.848;9.620;2023-09-19T13:38:52;99357.69;;;27.80;28.16
61742;BME280;47650;49.848;9.620;2023-09-19T13:41:20;99351.28;;;26.57;30.04
61742;BME280;47650;49.848;9.620;2023-09-19T13:43:46;99346.81;;;29.31;26.84
61742;BME280;47650;49.848;9.620;2023-09-19T13:46:14;99328.94;;;28.10;28.35
61742;BME280;47650;49.848;9.620;2023-09-19T13:48:41;99347.81;;;27.64;28.71
61742;BME280;47650;49.848;9.620;2023-09-19T13:51:06;99341.63;;;27.84;28.61
61742;BME280;47650;49.848;9.620;2023-09-19T13:53:32;99314.53;;;27.14;28.71
61742;BME280;47650;49.848;9.620;2023-09-19T13:55:59;99351.81;;;27.99;27.59
61742;BME280;47650;49.848;9.620;2023-09-19T13:58:24;99342.03;;;28.18;27.19
61742;BME280;47650;49.848;9.620;2023-09-19T14:00:51;99338.00;;;30.35;25.56
61742;BME280;47650;49.848;9.620;2023-09-19T14:03:20;99309.41;;;28.49;27.08
61742;BME280;47650;49.848;9.620;2023-09-19T14:05:46;99222.00;;;27.77;27.23
61742;BME280;47650;49.848;9.620;2023-09-19T14:08:13;99338.28;;;28.29;28.22